Time;durP1;ratioP1;P1;durP2;ratioP2;P2;SDS_P1;SDS_P2;PMS_P1;PMS_P2;Temp;Humidity;BMP_temperature;BMP_pressure;BME280_temperature;BME280_humidity;BME280_pressure;Samples;Min_cycle;Max_cycle;Signal;HPM_P1;HPM_P2
2022/09/29 00:00:37;;;;;;;11.25;4.53;;;6.10;99.90;;;;;;5069343;28;20430;-68
2022/09/29 00:03:04;;;;;;;6.38;3.75;;;6.10;99.90;;;;;;5063511;28;20052;-68
2022/09/29 00:05:31;;;;;;;5.63;4.07;;;6.10;99.90;;;;;;5093329;28;20045;-67
2022/09/29 00:07:58;;;;;;;6.55;3.67;;;6.10;99.90;;;;;;5086477;28;20471;-67
2022/09/29 00:10:25;;;;;;;6.53;4.32;;;6.00;99.90;;;;;;5095346;28;20070;-68
2022/09/29 00:12:52;;;;;;;6.90;3.75;;;6.00;99.90;;;;;;5094569;28;20053;-68
2022/09/29 00:15:19;;;;;;;6.07;4.53;;;6.00;99.90;;;;;;5105917;28;20597;-68
2022/09/29 00:17:46;;;;;;;8.15;4.43;;;6.00;99.90;;;;;;5088398;28;20040;-68
2022/09/29 00:20:33;;;;;;;6.63;3.40;;;6.00;99.90;;;;;;5093064;28;20050;-68
2022/09/29 00:22:59;;;;;;;5.03;4.07;;;6.00;99.90;;;;;;5101322;28;20049;-68
2022/09/29 00:25:26;;;;;;;7.20;4.03;;;6.00;99.90;;;;;;5078197;28;20097;-67
2022/09/29 00:27:53;;;;;;;5.55;4.88;;;6.00;99.90;;;;;;5087838;28;20094;-68
2022/09/29 00:30:20;;;;;;;6.25;4.32;;;6.00;99.90;;;;;;5096203;28;20044;-68
2022/09/29 00:32:47;;;;;;;6.15;3.90;;;5.90;99.90;;;;;;5073037;28;20071;-70
2022/09/29 00:35:16;;;;;;;9.77;4.55;;;5.90;99.90;;;;;;5101883;28;20760;-68
2022/09/29 00:37:43;;;;;;;;;;;5.90;99.90;;;;;;5091617;28;20052;-68
2022/09/29 00:40:10;;;;;;;6.35;3.50;;;5.90;99.90;;;;;;5090561;28;19969;-67
2022/09/29 00:42:37;;;;;;;8.98;3.83;;;6.00;99.90;;;;;;5070835;28;20052;-68
2022/09/29 00:45:33;;;;;;;6.00;3.85;;;5.90;99.90;;;;;;5082279;28;20052;-68
2022/09/29 00:48:12;;;;;;;6.97;4.05;;;6.00;99.90;;;;;;5077087;28;20560;-69
2022/09/29 00:50:41;;;;;;;5.97;4.17;;;6.00;99.90;;;;;;5104818;28;20433;-70
2022/09/29 00:53:11;;;;;;;5.03;3.30;;;5.90;99.90;;;;;;5056931;28;20686;-70
2022/09/29 00:55:47;;;;;;;7.13;3.67;;;6.00;99.90;;;;;;5067923;28;20518;-69
2022/09/29 00:58:25;;;;;;;7.22;3.65;;;6.00;99.90;;;;;;5078942;28;20089;-68
2022/09/29 01:00:54;;;;;;;4.57;3.33;;;5.90;99.90;;;;;;5088804;28;20728;-69
2022/09/29 01:03:21;;;;;;;5.80;3.75;;;5.90;99.90;;;;;;5095495;28;20045;-69
2022/09/29 01:05:56;;;;;;;6.55;4.38;;;5.90;99.90;;;;;;5078111;28;20040;-71
2022/09/29 01:08:46;;;;;;;5.70;4.10;;;5.90;99.90;;;;;;5101202;28;20070;-70
2022/09/29 01:11:13;;;;;;;7.40;4.18;;;5.80;99.90;;;;;;5078506;28;20048;-70
2022/09/29 01:13:40;;;;;;;6.57;3.65;;;5.80;99.90;;;;;;5096801;28;20846;-68
2022/09/29 01:16:07;;;;;;;8.35;4.18;;;5.80;99.90;;;;;;5090264;28;20418;-70
2022/09/29 01:18:34;;;;;;;6.13;3.33;;;5.80;99.90;;;;;;5100296;28;20446;-70
2022/09/29 01:21:24;;;;;;;5.97;3.78;;;5.70;99.90;;;;;;5079283;28;20110;-70
2022/09/29 01:24:11;;;;;;;8.95;3.88;;;5.70;99.90;;;;;;5071004;28;20149;-70
2022/09/29 01:27:03;;;;;;;4.85;3.22;;;5.70;99.90;;;;;;5096110;28;20044;-70
2022/09/29 01:30:08;;;;;;;6.45;3.72;;;5.70;99.90;;;;;;5095453;28;20086;-70
2022/09/29 01:32:39;;;;;;;4.85;3.80;;;5.70;99.90;;;;;;5104270;28;20513;-70
2022/09/29 01:35:06;;;;;;;6.07;3.70;;;5.70;99.90;;;;;;5095446;28;20044;-69
2022/09/29 01:37:45;;;;;;;7.38;4.15;;;5.60;99.90;;;;;;5075069;28;20055;-70
2022/09/29 01:40:16;;;;;;;7.15;3.67;;;5.60;99.90;;;;;;5092975;28;20098;-70
2022/09/29 01:43:16;;;;;;;6.95;4.10;;;5.70;99.90;;;;;;5100393;28;20040;-69
2022/09/29 01:46:13;;;;;;;5.13;3.20;;;5.60;99.90;;;;;;5057599;28;20040;-70
2022/09/29 01:48:46;;;;;;;5.20;3.58;;;5.60;99.90;;;;;;5067151;28;20051;-69
2022/09/29 01:51:16;;;;;;;4.75;3.45;;;5.60;99.90;;;;;;5066704;28;20561;-69
2022/09/29 01:53:51;;;;;;;6.22;3.85;;;5.50;99.90;;;;;;5092389;28;20044;-70
2022/09/29 01:56:41;;;;;;;5.38;3.60;;;5.50;99.90;;;;;;5094900;28;20105;-70
2022/09/29 01:59:13;;;;;;;6.05;3.85;;;5.50;99.90;;;;;;5093673;28;20048;-70
2022/09/29 02:01:41;;;;;;;4.70;3.70;;;5.40;99.90;;;;;;5091999;28;20077;-70
2022/09/29 02:04:16;;;;;;;5.22;3.47;;;5.40;99.90;;;;;;5088768;28;20047;-70
2022/09/29 02:06:47;;;;;;;6.28;3.35;;;5.40;99.90;;;;;;5090646;28;20112;-69
2022/09/29 02:09:18;;;;;;;5.18;3.65;;;5.40;99.90;;;;;;5094760;28;20052;-69
2022/09/29 02:11:45;;;;;;;6.55;3.50;;;5.40;99.90;;;;;;5105532;28;20044;-70
2022/09/29 02:14:20;;;;;;;5.20;4.03;;;5.30;99.90;;;;;;5080811;28;20122;-68
2022/09/29 02:16:50;;;;;;;4.88;3.10;;;5.30;99.90;;;;;;5094264;28;20040;-70
2022/09/29 02:19:18;;;;;;;;;;;5.30;99.90;;;;;;5094056;28;20052;-70
2022/09/29 02:21:45;;;;;;;5.20;3.20;;;5.30;99.90;;;;;;5087464;28;19965;-70
2022/09/29 02:24:12;;;;;;;6.53;4.55;;;5.20;99.90;;;;;;5094676;28;20045;-69
2022/09/29 02:26:39;;;;;;;6.80;3.90;;;5.20;99.90;;;;;;5100206;28;20048;-70
2022/09/29 02:29:06;;;;;;;4.70;3.40;;;5.20;99.90;;;;;;5062700;28;20043;-69
2022/09/29 02:31:34;;;;;;;5.18;3.00;;;5.20;99.90;;;;;;5076320;28;20052;-70
2022/09/29 02:34:01;;;;;;;5.63;3.45;;;5.10;99.90;;;;;;5096564;28;20086;-70
2022/09/29 02:36:41;;;;;;;6.07;3.80;;;5.10;99.90;;;;;;5103718;28;20044;-69
2022/09/29 02:39:29;;;;;;;5.32;3.50;;;5.10;99.90;;;;;;5080512;28;20109;-70
2022/09/29 02:42:26;;;;;;;6.57;3.35;;;5.10;99.90;;;;;;5090184;28;20105;-70
2022/09/29 02:45:24;;;;;;;5.75;3.03;;;5.10;99.90;;;;;;5069981;28;20044;-69
2022/09/29 02:48:19;;;;;;;7.25;3.65;;;5.10;99.90;;;;;;5107096;28;20044;-69
2022/09/29 02:50:47;;;;;;;6.53;4.40;;;5.10;99.90;;;;;;5085241;28;20032;-70
2022/09/29 02:53:22;;;;;;;6.00;3.88;;;5.10;99.90;;;;;;5097174;28;20114;-70
2022/09/29 02:56:08;;;;;;;5.95;3.97;;;5.10;99.90;;;;;;5107656;28;20040;-70
2022/09/29 02:58:43;;;;;;;10.10;3.40;;;5.10;99.90;;;;;;5090152;28;20422;-70
2022/09/29 03:01:15;;;;;;;5.37;4.37;;;5.00;99.90;;;;;;5072567;28;20060;-70
2022/09/29 03:03:42;;;;;;;5.70;3.72;;;5.00;99.90;;;;;;5090525;28;20185;-70
2022/09/29 03:06:10;;;;;;;6.28;3.72;;;5.00;99.90;;;;;;5087786;28;20044;-70
2022/09/29 03:08:37;;;;;;;6.30;3.60;;;4.90;99.90;;;;;;5090388;28;20476;-69
2022/09/29 03:11:04;;;;;;;5.13;3.22;;;5.00;99.90;;;;;;5087269;28;20106;-70
2022/09/29 03:13:31;;;;;;;5.88;3.63;;;4.90;99.90;;;;;;5079046;28;20048;-69
2022/09/29 03:15:58;;;;;;;6.07;4.75;;;4.90;99.90;;;;;;5093827;28;20048;-70
2022/09/29 03:18:25;;;;;;;8.25;4.18;;;4.80;99.90;;;;;;5079455;28;20113;-71
2022/09/29 03:20:53;;;;;;;6.40;4.03;;;4.80;99.90;;;;;;5082085;28;20040;-70
2022/09/29 03:23:20;;;;;;;31.27;20.00;;;4.90;99.90;;;;;;5100834;28;20096;-70
2022/09/29 03:25:47;;;;;;;93.20;62.40;;;4.90;99.90;;;;;;5104100;28;20284;-71
2022/09/29 03:28:17;;;;;;;24.17;15.57;;;4.90;99.90;;;;;;5089801;28;20048;-72
2022/09/29 03:30:44;;;;;;;15.70;10.57;;;4.80;99.90;;;;;;5076434;28;20514;-71
2022/09/29 03:33:11;;;;;;;13.10;8.55;;;4.80;99.90;;;;;;5072221;28;20099;-69
2022/09/29 03:35:38;;;;;;;12.48;6.80;;;4.80;99.90;;;;;;5089776;28;20041;-70
2022/09/29 03:38:10;;;;;;;9.05;5.65;;;4.80;99.90;;;;;;5098319;28;20477;-70
2022/09/29 03:40:37;;;;;;;8.45;4.82;;;4.80;99.90;;;;;;5084268;28;20048;-70
2022/09/29 03:43:03;;;;;;;8.40;5.10;;;4.80;99.90;;;;;;5075634;28;20048;-70
2022/09/29 03:45:30;;;;;;;5.28;4.18;;;4.70;99.90;;;;;;5084514;28;20040;-69
2022/09/29 03:47:57;;;;;;;5.70;3.70;;;4.70;99.90;;;;;;5086698;28;20068;-70
2022/09/29 03:50:24;;;;;;;6.00;3.78;;;4.70;99.90;;;;;;5088829;28;20052;-69
2022/09/29 03:52:51;;;;;;;5.03;3.40;;;4.60;99.90;;;;;;5086014;28;20039;-70
2022/09/29 03:55:20;;;;;;;5.50;4.33;;;4.60;99.90;;;;;;5088011;28;20090;-70
2022/09/29 03:57:47;;;;;;;5.82;4.22;;;4.60;99.90;;;;;;5072541;28;20307;-70
2022/09/29 04:00:14;;;;;;;8.15;3.58;;;4.60;99.90;;;;;;5093870;28;20055;-70
2022/09/29 04:02:41;;;;;;;5.28;3.35;;;4.50;99.90;;;;;;5100144;28;20047;-70
2022/09/29 04:05:08;;;;;;;5.22;3.53;;;4.50;99.90;;;;;;5054655;28;20090;-70
2022/09/29 04:07:35;;;;;;;5.40;3.35;;;4.50;99.90;;;;;;5086562;28;20055;-70
2022/09/29 04:10:02;;;;;;;5.78;4.40;;;4.50;99.90;;;;;;5097744;28;20036;-70
2022/09/29 04:12:29;;;;;;;5.05;3.58;;;4.50;99.90;;;;;;5074019;28;20487;-70
2022/09/29 04:14:56;;;;;;;5.70;3.53;;;4.40;99.90;;;;;;5083834;28;20044;-70
2022/09/29 04:17:23;;;;;;;6.88;4.80;;;4.40;99.90;;;;;;5087075;28;20036;-70
2022/09/29 04:19:50;;;;;;;4.95;3.35;;;4.40;99.90;;;;;;5100933;28;20040;-70
2022/09/29 04:22:17;;;;;;;8.23;3.63;;;4.40;99.90;;;;;;5076084;28;20361;-70
2022/09/29 04:24:46;;;;;;;6.57;4.00;;;4.40;99.90;;;;;;5075473;28;20044;-70
2022/09/29 04:27:14;;;;;;;5.82;4.05;;;4.40;99.90;;;;;;5073516;28;20545;-70
2022/09/29 04:29:41;;;;;;;4.15;3.55;;;4.40;99.90;;;;;;5075785;28;20480;-70
2022/09/29 04:32:08;;;;;;;5.18;3.78;;;4.30;99.90;;;;;;5087529;28;20044;-71
2022/09/29 04:34:35;;;;;;;5.05;3.45;;;4.40;99.90;;;;;;5077702;28;20109;-70
2022/09/29 04:37:01;;;;;;;5.18;3.13;;;4.30;99.90;;;;;;5073718;28;20044;-70
2022/09/29 04:39:28;;;;;;;7.13;3.72;;;4.40;99.90;;;;;;5094458;28;20036;-70
2022/09/29 04:41:55;;;;;;;5.50;3.80;;;4.40;99.90;;;;;;5075925;28;20059;-70
2022/09/29 04:44:23;;;;;;;5.35;3.40;;;4.50;99.90;;;;;;5087185;28;20418;-70
2022/09/29 04:46:50;;;;;;;7.00;4.03;;;4.50;99.90;;;;;;5107250;28;20063;-69
2022/09/29 04:49:18;;;;;;;5.68;3.65;;;4.60;99.90;;;;;;5080238;28;20036;-70
2022/09/29 04:51:45;;;;;;;5.35;3.40;;;4.70;99.90;;;;;;5083360;28;20114;-70
2022/09/29 04:54:12;;;;;;;6.28;4.13;;;4.80;99.90;;;;;;5072738;28;20048;-70
2022/09/29 04:56:39;;;;;;;5.68;3.22;;;4.80;99.90;;;;;;5083961;28;20116;-70
2022/09/29 04:59:05;;;;;;;4.25;3.13;;;4.90;99.90;;;;;;5092456;28;20117;-70
2022/09/29 05:01:33;;;;;;;6.50;3.90;;;4.90;99.90;;;;;;5072486;28;20041;-70
2022/09/29 05:04:00;;;;;;;6.60;4.63;;;5.00;99.90;;;;;;5092840;28;20036;-70
2022/09/29 05:06:27;;;;;;;4.43;3.17;;;5.10;99.90;;;;;;5062885;28;20036;-70
2022/09/29 05:08:54;;;;;;;6.88;3.58;;;5.10;99.90;;;;;;5068270;28;20056;-69
2022/09/29 05:11:21;;;;;;;6.93;4.72;;;5.20;99.90;;;;;;5082468;28;20045;-69
2022/09/29 05:13:49;;;;;;;6.25;4.10;;;5.30;99.90;;;;;;5095177;28;20043;-70
2022/09/29 05:16:16;;;;;;;6.55;3.60;;;5.40;99.90;;;;;;5083198;28;20471;-70
2022/09/29 05:18:43;;;;;;;6.60;3.90;;;5.40;99.90;;;;;;5075887;28;20478;-70
2022/09/29 05:21:10;;;;;;;5.28;4.20;;;5.50;99.90;;;;;;5085237;28;20506;-70
2022/09/29 05:23:55;;;;;;;4.43;3.25;;;5.50;99.90;;;;;;5081215;28;20052;-69
2022/09/29 05:26:22;;;;;;;6.13;3.88;;;5.60;99.90;;;;;;5070835;28;20094;-70
2022/09/29 05:28:49;;;;;;;5.95;4.15;;;5.70;99.90;;;;;;5090280;28;20044;-69
2022/09/29 05:31:16;;;;;;;6.57;4.10;;;5.70;99.90;;;;;;5093071;28;20109;-69
2022/09/29 05:33:43;;;;;;;6.70;4.50;;;5.70;99.90;;;;;;5086545;28;20070;-70
2022/09/29 05:36:11;;;;;;;6.00;4.13;;;5.80;99.90;;;;;;5095499;28;20049;-69
2022/09/29 05:38:38;;;;;;;6.22;3.95;;;5.80;99.90;;;;;;5072380;28;20086;-69
2022/09/29 05:41:09;;;;;;;7.30;4.50;;;5.90;99.90;;;;;;5087722;28;20126;-70
2022/09/29 05:43:37;;;;;;;6.18;3.90;;;6.00;99.90;;;;;;5074484;28;20044;-71
2022/09/29 05:46:05;;;;;;;6.82;5.38;;;6.00;99.90;;;;;;5079801;28;20431;-69
2022/09/29 05:48:32;;;;;;;6.95;4.90;;;6.00;99.90;;;;;;5071413;28;20158;-70
2022/09/29 05:50:59;;;;;;;7.18;3.90;;;6.00;99.90;;;;;;5063575;28;20048;-71
2022/09/29 05:53:26;;;;;;;8.43;4.18;;;6.00;99.90;;;;;;5091195;28;20089;-70
2022/09/29 05:55:53;;;;;;;6.38;4.00;;;6.10;99.90;;;;;;5093052;28;20071;-69
2022/09/29 05:58:20;;;;;;;6.65;4.63;;;6.10;99.90;;;;;;5078738;28;20040;-69
2022/09/29 06:00:47;;;;;;;6.57;4.45;;;6.10;99.90;;;;;;5072873;28;20066;-70
2022/09/29 06:03:13;;;;;;;7.55;4.18;;;6.20;99.90;;;;;;5099357;28;20051;-69
2022/09/29 06:05:41;;;;;;;7.43;5.45;;;6.20;99.90;;;;;;5067973;28;20499;-70
2022/09/29 06:08:08;;;;;;;5.07;3.65;;;6.20;99.90;;;;;;5072955;28;20437;-70
2022/09/29 06:10:34;;;;;;;7.50;5.13;;;6.30;99.90;;;;;;5081114;28;20043;-70
2022/09/29 06:13:02;;;;;;;5.95;3.80;;;6.30;99.90;;;;;;5053073;28;20056;-69
2022/09/29 06:15:29;;;;;;;45.92;32.17;;;6.40;99.90;;;;;;5095986;28;20032;-68
2022/09/29 06:18:00;;;;;;;24.95;16.92;;;6.50;99.90;;;;;;5057538;28;20098;-68
2022/09/29 06:20:27;;;;;;;8.25;5.65;;;6.60;99.90;;;;;;5068258;28;20058;-68
2022/09/29 06:22:54;;;;;;;8.05;4.95;;;6.60;99.90;;;;;;5076236;28;20071;-71
2022/09/29 06:25:21;;;;;;;6.85;4.63;;;6.70;99.90;;;;;;5076316;28;20059;-70
2022/09/29 06:27:48;;;;;;;6.70;3.97;;;6.70;99.90;;;;;;5096881;28;20037;-69
2022/09/29 06:30:15;;;;;;;6.50;4.38;;;6.80;99.90;;;;;;5081132;28;20112;-67
2022/09/29 06:32:42;;;;;;;24.80;18.48;;;6.90;99.90;;;;;;5078310;28;20040;-67
2022/09/29 06:37:55;;;;;;;6.30;4.30;;;6.90;99.90;;;;;;5097427;28;20052;-67
2022/09/29 06:40:22;;;;;;;8.68;5.45;;;7.00;99.90;;;;;;5096214;28;20077;-67
2022/09/29 06:42:49;;;;;;;7.25;4.20;;;7.10;99.90;;;;;;5075656;28;20052;-68
2022/09/29 06:45:18;;;;;;;8.90;4.60;;;7.10;99.90;;;;;;5073920;28;20044;-66
2022/09/29 06:47:48;;;;;;;8.63;4.38;;;7.20;99.90;;;;;;5075733;28;20123;-70
2022/09/29 06:50:15;;;;;;;5.30;4.20;;;7.20;99.90;;;;;;5085274;28;20043;-69
2022/09/29 06:52:43;;;;;;;9.25;5.40;;;7.30;99.90;;;;;;5086166;28;20048;-69
2022/09/29 06:55:24;;;;;;;7.47;4.60;;;7.30;99.90;;;;;;5078055;28;20036;-69
2022/09/29 06:57:51;;;;;;;8.57;4.50;;;7.40;99.90;;;;;;5086549;28;20072;-67
2022/09/29 07:00:18;;;;;;;4.35;3.42;;;7.40;99.90;;;;;;5078590;28;20047;-66
2022/09/29 07:02:46;;;;;;;5.60;3.75;;;7.50;99.90;;;;;;5098468;28;20418;-71
2022/09/29 07:05:13;;;;;;;6.03;3.22;;;7.60;99.90;;;;;;5085164;28;20094;-67
2022/09/29 07:07:41;;;;;;;4.55;3.55;;;7.70;99.90;;;;;;5096196;28;20118;-65
2022/09/29 07:10:08;;;;;;;7.00;3.80;;;7.70;99.90;;;;;;5081045;28;20048;-64
2022/09/29 07:12:35;;;;;;;4.10;3.67;;;7.70;99.90;;;;;;5092716;28;20086;-67
2022/09/29 07:15:02;;;;;;;5.15;3.83;;;7.80;99.90;;;;;;5075774;28;20476;-64
2022/09/29 07:17:29;;;;;;;7.07;3.83;;;7.90;99.90;;;;;;5076268;28;20476;-63
2022/09/29 07:19:55;;;;;;;6.13;3.63;;;7.90;99.90;;;;;;5079235;28;20040;-63
2022/09/29 07:22:22;;;;;;;6.15;3.78;;;8.00;99.90;;;;;;5090676;28;20493;-64
2022/09/29 07:24:52;;;;;;;5.53;4.07;;;8.10;99.90;;;;;;5083615;28;20384;-64
2022/09/29 07:27:22;;;;;;;;;;;8.10;99.90;;;;;;5082865;28;20109;-63
2022/09/29 07:29:50;;;;;;;8.85;4.20;;;8.20;99.90;;;;;;5079286;28;19924;-68
2022/09/29 07:32:31;;;;;;;5.75;4.10;;;8.30;99.90;;;;;;5079867;28;20381;-66
2022/09/29 07:35:01;;;;;;;8.18;4.35;;;8.40;99.90;;;;;;5056278;28;20059;-65
2022/09/29 07:37:28;;;;;;;10.15;4.18;;;8.40;99.90;;;;;;5078101;28;20379;-65
2022/09/29 07:39:55;;;;;;;5.60;3.85;;;8.50;99.90;;;;;;5074815;28;20041;-65
2022/09/29 07:42:22;;;;;;;7.47;3.88;;;8.60;99.90;;;;;;5088849;28;20541;-65
2022/09/29 07:44:48;;;;;;;5.55;3.60;;;8.80;99.90;;;;;;5081009;28;20036;-68
2022/09/29 07:47:18;;;;;;;8.38;4.18;;;8.80;99.90;;;;;;5078410;28;20376;-68
2022/09/29 07:49:45;;;;;;;471.48;371.23;;;8.90;99.90;;;;;;5087515;28;20044;-66
2022/09/29 07:52:12;;;;;;;33.40;26.58;;;9.10;99.90;;;;;;5101646;28;20040;-64
2022/09/29 07:54:39;;;;;;;14.05;10.35;;;9.20;99.90;;;;;;5090618;28;20387;-64
2022/09/29 07:57:06;;;;;;;8.65;6.05;;;9.30;99.90;;;;;;5066985;28;20041;-63
2022/09/29 07:59:33;;;;;;;5.57;4.57;;;9.30;99.90;;;;;;5073618;28;20129;-64
2022/09/29 08:02:01;;;;;;;4.82;4.00;;;9.40;99.90;;;;;;5073178;28;20056;-65
2022/09/29 08:04:28;;;;;;;4.80;3.72;;;9.40;99.90;;;;;;5089523;28;20159;-66
2022/09/29 08:06:55;;;;;;;5.95;3.90;;;9.40;99.90;;;;;;5068320;28;20051;-67
2022/09/29 08:09:29;;;;;;;5.78;4.38;;;9.40;99.90;;;;;;5085032;28;20458;-66
2022/09/29 08:12:07;;;;;;;5.30;4.53;;;9.40;99.90;;;;;;5072779;28;20044;-65
2022/09/29 08:14:34;;;;;;;8.32;4.03;;;9.30;99.90;;;;;;5090415;28;20388;-68
2022/09/29 08:17:01;;;;;;;7.55;3.97;;;9.30;99.90;;;;;;5093488;28;20119;-65
2022/09/29 08:19:28;;;;;;;7.22;4.15;;;9.20;99.90;;;;;;5061445;28;20821;-64
2022/09/29 08:21:55;;;;;;;6.00;3.55;;;9.20;99.90;;;;;;5071288;28;20044;-67
2022/09/29 08:24:24;;;;;;;6.40;4.32;;;9.20;99.90;;;;;;5094336;28;21755;-65
2022/09/29 08:26:50;;;;;;;6.57;4.45;;;9.20;99.90;;;;;;5089208;28;20049;-66
2022/09/29 08:29:17;;;;;;;6.82;4.47;;;9.20;99.90;;;;;;5072755;28;20049;-65
2022/09/29 08:31:44;;;;;;;9.63;4.43;;;9.20;99.90;;;;;;5071697;28;20079;-65
2022/09/29 08:34:12;;;;;;;5.90;4.32;;;9.20;99.90;;;;;;5075781;28;20055;-65
2022/09/29 08:36:40;;;;;;;5.88;4.03;;;9.20;99.90;;;;;;5089506;28;20127;-65
2022/09/29 08:39:08;;;;;;;8.68;4.72;;;9.20;99.90;;;;;;5075356;28;20083;-65
2022/09/29 08:41:51;;;;;;;9.82;4.60;;;9.20;99.90;;;;;;5071272;28;20052;-65
2022/09/29 08:44:40;;;;;;;7.00;4.60;;;9.30;99.90;;;;;;5072599;28;20045;-66
2022/09/29 08:47:12;;;;;;;8.55;5.28;;;9.40;99.90;;;;;;5070681;28;20037;-65
2022/09/29 08:49:56;;;;;;;6.75;5.03;;;9.40;99.90;;;;;;5072577;28;20122;-65
2022/09/29 08:52:30;;;;;;;7.45;4.63;;;9.50;99.90;;;;;;5057727;28;20491;-65
2022/09/29 08:55:12;;;;;;;9.32;5.70;;;9.60;99.90;;;;;;5091473;28;20459;-66
2022/09/29 08:57:48;;;;;;;6.65;4.75;;;9.60;99.90;;;;;;5084356;28;20115;-65
2022/09/29 09:00:17;;;;;;;69.93;51.13;;;9.60;99.90;;;;;;5090922;28;20321;-66
2022/09/29 09:03:12;;;;;;;134.45;86.95;;;9.70;99.90;;;;;;5091334;28;20125;-68
2022/09/29 09:05:57;;;;;;;29.75;21.23;;;9.80;99.90;;;;;;5090765;28;20074;-68
2022/09/29 09:08:27;;;;;;;13.85;9.77;;;9.90;99.90;;;;;;5090864;28;20075;-68
2022/09/29 09:11:15;;;;;;;10.68;6.60;;;10.00;99.90;;;;;;5073613;28;20068;-68
2022/09/29 09:14:15;;;;;;;6.72;5.22;;;10.00;99.90;;;;;;5071694;28;20052;-68
2022/09/29 09:17:19;;;;;;;9.93;6.35;;;10.10;99.90;;;;;;5084304;28;20116;-68
2022/09/29 09:19:54;;;;;;;8.25;6.53;;;10.30;99.90;;;;;;5090924;28;20051;-68
2022/09/29 09:22:22;;;;;;;6.70;5.93;;;10.40;99.90;;;;;;5058776;28;20048;-68
2022/09/29 09:24:58;;;;;;;15.23;6.28;;;10.50;99.90;;;;;;5057847;28;20097;-68
2022/09/29 09:27:28;;;;;;;9.95;5.25;;;10.50;99.90;;;;;;5091228;28;20097;-68
2022/09/29 09:30:04;;;;;;;8.20;5.68;;;10.50;99.90;;;;;;5088728;28;20086;-68
2022/09/29 09:32:35;;;;;;;7.63;4.90;;;10.50;99.90;;;;;;5089884;28;20468;-68
2022/09/29 09:35:33;;;;;;;7.40;3.95;;;10.50;99.90;;;;;;5091387;28;20048;-67
2022/09/29 09:38:03;;;;;;;5.60;3.85;;;10.60;99.90;;;;;;5091059;28;20040;-68
2022/09/29 09:40:39;;;;;;;3.75;3.05;;;10.70;99.90;;;;;;5082359;28;20041;-68
2022/09/29 09:43:21;;;;;;;6.35;4.80;;;10.70;99.90;;;;;;5072034;28;20091;-68
2022/09/29 09:45:54;;;;;;;11.48;6.40;;;10.70;99.90;;;;;;5069953;28;20044;-67
2022/09/29 09:48:35;;;;;;;5.05;3.90;;;10.80;99.90;;;;;;5054488;28;20543;-68
2022/09/29 09:51:20;;;;;;;8.30;5.32;;;10.90;99.90;;;;;;5078479;28;20740;-69
2022/09/29 09:53:47;;;;;;;6.32;5.03;;;11.00;99.90;;;;;;5070708;28;20063;-68
2022/09/29 09:56:31;;;;;;;7.07;4.70;;;11.20;99.90;;;;;;5070870;28;20036;-68
2022/09/29 09:58:57;;;;;;;7.05;4.93;;;11.20;99.90;;;;;;5082538;28;20070;-66
2022/09/29 10:01:24;;;;;;;5.97;4.75;;;11.30;99.90;;;;;;5073867;28;20041;-68
2022/09/29 10:03:51;;;;;;;7.13;5.63;;;11.50;99.90;;;;;;5073368;28;20048;-68
2022/09/29 10:06:18;;;;;;;6.38;5.13;;;11.50;99.90;;;;;;5082248;28;20044;-68
2022/09/29 10:08:45;;;;;;;8.38;5.28;;;11.70;99.90;;;;;;5057824;28;20476;-67
2022/09/29 10:11:20;;;;;;;10.25;5.53;;;11.80;99.90;;;;;;5057345;28;20102;-68
2022/09/29 10:13:48;;;;;;;12.20;5.88;;;11.80;99.90;;;;;;5092546;28;20102;-68
2022/09/29 10:16:22;;;;;;;8.30;5.60;;;12.00;99.90;;;;;;5089933;28;20041;-68
2022/09/29 10:18:52;;;;;;;8.98;5.78;;;12.10;99.90;;;;;;5089923;28;20097;-68
2022/09/29 10:21:22;;;;;;;6.55;4.38;;;12.20;99.90;;;;;;5073946;28;20045;-68
2022/09/29 10:23:50;;;;;;;11.10;5.70;;;12.30;99.90;;;;;;5082653;28;20064;-65
2022/09/29 10:26:24;;;;;;;6.93;4.03;;;12.40;99.90;;;;;;5090538;28;20044;-68
2022/09/29 10:28:57;;;;;;;6.95;4.13;;;12.60;99.90;;;;;;5073738;28;20048;-68
2022/09/29 10:31:32;;;;;;;7.90;4.35;;;12.70;99.90;;;;;;5093457;28;20381;-68
2022/09/29 10:34:00;;;;;;;8.23;4.03;;;12.80;99.90;;;;;;5087090;28;20036;-68
2022/09/29 10:36:31;;;;;;;7.47;4.10;;;12.90;99.90;;;;;;5082037;28;20094;-67
2022/09/29 10:38:59;;;;;;;8.32;4.10;;;12.90;99.90;;;;;;5056354;28;20046;-69
2022/09/29 10:41:30;;;;;;;9.85;4.82;;;13.00;99.90;;;;;;5056826;28;20076;-68
2022/09/29 10:43:57;;;;;;;6.63;3.60;;;13.00;99.90;;;;;;5081877;28;20437;-70
2022/09/29 10:46:51;;;;;;;6.20;4.50;;;13.00;99.90;;;;;;5077473;28;20048;-71
2022/09/29 10:49:23;;;;;;;6.63;4.60;;;13.00;99.90;;;;;;5074567;28;20049;-64
2022/09/29 10:51:57;;;;;;;79.13;60.67;;;13.10;99.90;;;;;;5096370;28;20097;-65
2022/09/29 10:54:25;;;;;;;10.38;7.32;;;13.10;99.90;;;;;;5084188;28;20036;-68
2022/09/29 10:56:52;;;;;;;9.00;5.65;;;13.10;99.90;;;;;;5090964;28;20052;-64
2022/09/29 10:59:19;;;;;;;4.90;3.58;;;13.10;99.90;;;;;;5083700;28;20048;-68
2022/09/29 11:01:49;;;;;;;7.60;3.72;;;13.20;99.90;;;;;;5090556;28;20044;-68
2022/09/29 11:04:35;;;;;;;11.77;4.45;;;13.20;99.90;;;;;;5096396;28;20113;-65
2022/09/29 11:07:10;;;;;;;6.18;4.00;;;13.40;99.90;;;;;;5079106;28;20090;-65
2022/09/29 11:09:41;;;;;;;7.00;4.32;;;13.50;99.90;;;;;;5093985;28;20094;-68
2022/09/29 11:12:37;;;;;;;7.65;4.32;;;13.60;99.90;;;;;;5069572;28;20047;-73
2022/09/29 11:15:28;;;;;;;7.03;5.00;;;13.90;99.90;;;;;;5088132;28;20056;-69
2022/09/29 11:17:56;;;;;;;8.27;4.60;;;14.10;99.90;;;;;;5075752;28;20387;-70
2022/09/29 11:20:26;;;;;;;5.65;3.72;;;14.30;99.90;;;;;;5088332;28;20052;-69
2022/09/29 11:23:05;;;;;;;8.75;3.90;;;14.30;99.90;;;;;;5095330;28;20098;-67
2022/09/29 11:25:34;;;;;;;7.07;3.15;;;14.30;99.90;;;;;;5076087;28;20087;-65
2022/09/29 11:28:31;;;;;;;3.75;2.97;;;14.30;99.90;;;;;;5089925;28;20047;-63
2022/09/29 11:31:08;;;;;;;4.22;3.10;;;14.20;99.90;;;;;;5075278;28;20419;-63
2022/09/29 11:33:48;;;;;;;5.32;2.90;;;14.10;99.90;;;;;;5073680;28;20075;-64
2022/09/29 11:36:42;;;;;;;5.40;3.05;;;14.10;99.90;;;;;;5073733;28;20116;-62
2022/09/29 11:39:30;;;;;;;4.90;3.10;;;14.10;99.90;;;;;;5083701;28;20081;-64
2022/09/29 11:42:26;;;;;;;4.70;2.88;;;14.10;99.90;;;;;;5090252;28;20105;-65
2022/09/29 11:45:00;;;;;;;4.43;2.83;;;14.20;99.90;;;;;;5076930;28;20048;-63
2022/09/29 11:47:39;;;;;;;8.25;2.95;;;14.30;99.90;;;;;;5085279;28;20483;-67
2022/09/29 11:50:20;;;;;;;12.15;4.05;;;14.50;99.90;;;;;;5084605;28;20048;-68
2022/09/29 11:53:13;;;;;;;6.13;2.80;;;14.60;99.90;;;;;;5087054;28;20056;-68
2022/09/29 11:55:49;;;;;;;5.72;2.97;;;14.60;99.90;;;;;;5084984;28;20044;-66
2022/09/29 11:58:47;;;;;;;6.20;1.77;;;14.70;99.90;;;;;;5079109;28;20094;-65
2022/09/29 12:01:20;;;;;;;3.80;2.15;;;14.90;99.90;;;;;;5077801;28;20045;-74
2022/09/29 12:04:10;;;;;;;6.70;2.00;;;15.00;99.90;;;;;;5076602;28;20055;-67
2022/09/29 12:06:51;;;;;;;3.70;2.03;;;15.00;99.90;;;;;;5076201;28;20044;-59
2022/09/29 12:09:36;;;;;;;3.83;1.90;;;15.00;99.90;;;;;;5079972;28;20048;-59
2022/09/29 12:12:10;;;;;;;4.38;2.22;;;15.00;99.90;;;;;;5082577;28;20044;-66
2022/09/29 12:15:07;;;;;;;9.15;2.75;;;15.00;99.90;;;;;;5078835;28;20457;-65
2022/09/29 12:17:42;;;;;;;6.82;2.67;;;15.00;99.90;;;;;;5082129;28;20422;-63
2022/09/29 12:20:38;;;;;;;7.57;2.60;;;15.20;99.90;;;;;;5093301;28;20537;-64
2022/09/29 12:23:09;;;;;;;4.90;2.40;;;15.30;99.90;;;;;;5064140;28;20047;-67
2022/09/29 12:25:39;;;;;;;7.43;2.22;;;15.30;99.90;;;;;;5099452;28;20134;-67
2022/09/29 12:28:16;;;;;;;8.27;2.65;;;15.30;99.90;;;;;;5074065;28;20476;-71
2022/09/29 12:30:53;;;;;;;3.53;2.25;;;15.20;99.90;;;;;;5089149;28;20098;-74
2022/09/29 12:33:33;;;;;;;3.50;1.90;;;15.30;99.90;;;;;;5075427;28;20048;-76
2022/09/29 12:36:45;;;;;;;9.30;3.70;;;15.20;99.90;;;;;;5100308;28;20105;-72
2022/09/29 12:39:33;;;;;;;7.75;2.65;;;15.20;99.90;;;;;;5072185;28;20060;-68
2022/09/29 12:42:24;;;;;;;8.63;3.55;;;15.10;99.90;;;;;;5081730;28;20474;-69
2022/09/29 12:45:15;;;;;;;10.00;2.78;;;15.00;99.90;;;;;;5087084;28;20041;-65
2022/09/29 12:48:04;;;;;;;6.13;2.22;;;14.80;99.90;;;;;;5082084;28;20048;-68
2022/09/29 12:50:40;;;;;;;6.45;2.13;;;14.60;99.90;;;;;;5089314;28;20068;-77
2022/09/29 12:53:26;;;;;;;4.25;1.50;;;14.50;99.90;;;;;;5080758;28;20822;-65
2022/09/29 12:56:34;;;;;;;3.70;1.77;;;14.50;99.90;;;;;;5062373;28;20052;-71
2022/09/29 12:59:16;;;;;;;16.13;2.70;;;14.50;99.90;;;;;;5075416;28;20048;-64
2022/09/29 13:01:43;;;;;;;5.07;2.17;;;14.50;99.90;;;;;;5095472;28;20051;-67
2022/09/29 13:04:19;;;;;;;6.35;2.28;;;14.60;99.90;;;;;;5064044;28;20123;-67
2022/09/29 13:07:08;;;;;;;4.18;1.73;;;14.60;99.90;;;;;;5075718;28;20499;-72
2022/09/29 13:09:41;;;;;;;;;;;14.80;99.90;;;;;;5073955;28;20041;-66
2022/09/29 13:12:40;;;;;;;3.08;1.90;;;14.90;99.90;;;;;;5078069;28;20019;-66
2022/09/29 13:15:35;;;;;;;2.65;1.52;;;15.20;99.90;;;;;;5062098;28;20101;-66
2022/09/29 13:18:12;;;;;;;2.15;1.50;;;15.40;99.90;;;;;;5059711;28;20041;-66
2022/09/29 13:20:42;;;;;;;4.28;1.50;;;15.50;99.90;;;;;;5081206;28;20047;-66
2022/09/29 13:23:21;;;;;;;6.63;1.42;;;15.60;99.90;;;;;;5078093;28;20468;-65
2022/09/29 13:26:07;;;;;;;3.13;1.60;;;15.70;99.90;;;;;;5078324;28;20040;-66